Arbroath, United Kingdom
Current Conditions -  °F | °C
As of 9:50 AM on Monday 26 Jan 2015 (Local Time) from EGQL Reporting Station
Few Clouds Few Clouds  
Wind Chill: 35°   Ceiling: Unl
Heat Index: 41°   Visibility: 6mi
Dew Point: 34°   Wind: 10mph
Humidity: 76%   Direction: 270°W
Pressure: 30"   Gusts: NA
Location:  56.56°N, 2.58°W
Report Text: EGQL 260950Z 27009KT 9999 FEW018 05/01 Q1016 BLU
Loading
Personal Weather Stations






























Interactive Weather Map New forecast layout! Learn more

10-Day Weather Forecast

Advertisements
Track Severe Weather on mobile